Time;durP1;ratioP1;P1;durP2;ratioP2;P2;SDS_P1;SDS_P2;PMS_P1;PMS_P2;Temp;Humidity;BMP_temperature;BMP_pressure;BME280_temperature;BME280_humidity;BME280_pressure;Samples;Min_cycle;Max_cycle;Signal;HPM_P1;HPM_P2
2023/03/01 00:00:21;;;;;;;;;;;;;;;3.38;90.82;99693.53;4454785;32;20056;-67
2023/03/01 00:02:48;;;;;;;;;;;;;;;3.45;90.15;99695.84;4454620;32;19981;-67
2023/03/01 00:05:16;;;;;;;;;;;;;;;3.34;91.36;99697.16;4454827;32;20019;-67
2023/03/01 00:07:43;;;;;;;;;;;;;;;3.47;92.18;99697.47;4454111;32;19976;-67
2023/03/01 00:10:10;;;;;;;;;;;;;;;3.50;92.43;99699.09;4451882;32;20052;-67
2023/03/01 00:12:38;;;;;;;;;;;;;;;3.48;91.74;99698.31;4439152;32;19996;-67
2023/03/01 00:15:05;;;;;;;;;;;;;;;3.48;92.23;99700.88;4440619;32;19998;-67
2023/03/01 00:17:33;;;;;;;;;;;;;;;3.43;93.67;99690.75;4454447;32;20022;-67
2023/03/01 00:20:00;;;;;;;;;;;;;;;3.49;94.71;99698.22;4454469;32;19985;-67
2023/03/01 00:22:30;;;;;;;;;;;;;;;3.34;95.13;99704.94;4454530;32;20027;-67
2023/03/01 00:24:58;;;;;;;;;;;;;;;3.42;95.30;99703.75;4454599;32;19999;-67
2023/03/01 00:27:25;;;;;;;;;;;;;;;3.45;94.72;99701.91;4454407;32;20052;-67
2023/03/01 00:29:52;;;;;;;;;;;;;;;3.47;94.75;99714.78;4440065;32;19991;-67
2023/03/01 00:32:19;;;;;;;;;;;;;;;3.35;96.69;99709.22;4454655;32;19976;-67
2023/03/01 00:34:53;;;;;;;;;;;;;;;3.47;95.46;99710.44;4454448;32;20349;-67
2023/03/01 00:37:22;;;;;;;;;;;;;;;3.53;95.23;99712.72;4454468;32;19995;-67
2023/03/01 00:39:49;;;;;;;;;;;;;;;3.51;94.66;99711.13;4454268;32;19980;-67
2023/03/01 00:42:16;;;;;;;;;;;;;;;3.50;95.16;99710.28;4454643;32;20026;-67
2023/03/01 00:44:44;;;;;;;;;;;;;;;3.60;95.04;99710.69;4454597;32;20012;-67
2023/03/01 00:47:11;;;;;;;;;;;;;;;3.63;94.45;99705.38;4454236;32;20047;-67
2023/03/01 00:49:38;;;;;;;;;;;;;;;3.62;93.08;99700.25;4454432;32;20015;-67
2023/03/01 00:52:06;;;;;;;;;;;;;;;3.54;93.95;99698.03;4454688;32;20457;-67
2023/03/01 00:54:33;;;;;;;;;;;;;;;3.55;93.82;99697.13;4454448;32;20044;-67
2023/03/01 00:57:00;;;;;;;;;;;;;;;3.67;93.25;99693.97;4454474;32;19980;-67
2023/03/01 00:59:28;;;;;;;;;;;;;;;3.61;93.99;99693.41;4454296;32;19969;-67
2023/03/01 01:01:55;;;;;;;;;;;;;;;3.55;93.81;99694.53;4454538;32;20269;-67
2023/03/01 01:04:23;;;;;;;;;;;;;;;3.60;93.20;99689.13;4454183;32;20043;-67
2023/03/01 01:06:50;;;;;;;;;;;;;;;3.61;93.22;99680.47;4454622;32;19985;-67
2023/03/01 01:09:18;;;;;;;;;;;;;;;3.56;92.64;99680.69;4454250;32;20032;-67
2023/03/01 01:11:49;;;;;;;;;;;;;;;3.47;92.66;99676.75;4441674;32;20063;-67
2023/03/01 01:14:17;;;;;;;;;;;;;;;3.50;93.06;99675.78;4449659;32;20000;-67
2023/03/01 01:16:46;;;;;;;;;;;;;;;3.51;93.46;99680.87;4453956;32;19984;-67
2023/03/01 01:19:13;;;;;;;;;;;;;;;3.47;92.59;99675.91;4452798;32;19969;-67
2023/03/01 01:21:42;;;;;;;;;;;;;;;3.42;95.04;99675.25;4454297;32;20015;-67
2023/03/01 01:24:10;;;;;;;;;;;;;;;3.43;93.93;99671.78;4454119;32;19984;-67
2023/03/01 01:26:38;;;;;;;;;;;;;;;3.33;94.76;99661.84;4453984;32;19989;-67
2023/03/01 01:29:05;;;;;;;;;;;;;;;3.32;95.56;99657.56;4454012;32;20045;-67
2023/03/01 01:31:33;;;;;;;;;;;;;;;3.36;95.90;99656.53;4454189;32;19980;-67
2023/03/01 01:34:01;;;;;;;;;;;;;;;3.45;95.97;99657.00;4454232;32;19977;-67
2023/03/01 01:36:29;;;;;;;;;;;;;;;3.41;95.76;99658.91;4454041;32;20040;-67
2023/03/01 01:38:57;;;;;;;;;;;;;;;3.44;95.90;99652.75;4454149;32;19998;-67
2023/03/01 01:41:25;;;;;;;;;;;;;;;3.44;94.81;99658.75;4453875;32;20363;-67
2023/03/01 01:44:11;;;;;;;;;;;;;;;3.60;94.46;99653.69;4454136;32;20294;-67
2023/03/01 01:46:57;;;;;;;;;;;;;;;3.50;93.85;99653.28;4453799;32;20374;-67
2023/03/01 01:49:38;;;;;;;;;;;;;;;3.46;94.13;99656.09;4454098;32;20009;-67
2023/03/01 01:52:08;;;;;;;;;;;;;;;3.38;94.14;99649.50;4439805;32;20000;-67
2023/03/01 01:54:40;;;;;;;;;;;;;;;3.41;95.36;99642.50;4454022;32;20050;-67
2023/03/01 01:57:09;;;;;;;;;;;;;;;3.50;94.66;99636.91;4439835;32;20372;-67
2023/03/01 01:59:36;;;;;;;;;;;;;;;3.51;94.59;99629.06;4453566;32;19989;-67
2023/03/01 02:02:04;;;;;;;;;;;;;;;3.49;94.54;99628.28;4439784;32;20101;-67
2023/03/01 02:04:32;;;;;;;;;;;;;;;3.46;94.45;99623.25;4453958;32;19976;-67
2023/03/01 02:07:19;;;;;;;;;;;;;;;3.52;94.48;99619.53;4453690;32;20040;-67
2023/03/01 02:09:48;;;;;;;;;;;;;;;3.49;95.01;99617.09;4453700;32;20012;-67
2023/03/01 02:12:16;;;;;;;;;;;;;;;3.47;96.86;99621.53;4408953;32;20335;-67
2023/03/01 02:14:44;;;;;;;;;;;;;;;3.37;96.41;99621.91;4445862;32;81939;-67
2023/03/01 02:17:11;;;;;;;;;;;;;;;3.34;98.66;99622.06;4453157;32;20051;-67
2023/03/01 02:19:42;;;;;;;;;;;;;;;3.39;98.73;99629.63;4439447;32;19972;-67
2023/03/01 02:22:18;;;;;;;;;;;;;;;3.31;98.34;99632.56;4453742;32;20444;-67
2023/03/01 02:24:49;;;;;;;;;;;;;;;3.23;99.45;99634.66;4439371;32;20386;-67
2023/03/01 02:27:17;;;;;;;;;;;;;;;3.19;100.00;99631.38;4453435;32;20361;-67
2023/03/01 02:29:44;;;;;;;;;;;;;;;3.14;100.00;99627.31;4439348;32;19980;-67
2023/03/01 02:32:12;;;;;;;;;;;;;;;3.17;100.00;99629.78;4441057;32;20326;-67
2023/03/01 02:34:40;;;;;;;;;;;;;;;3.26;99.48;99618.16;4441836;32;20018;-67
2023/03/01 02:37:12;;;;;;;;;;;;;;;3.30;100.00;99615.34;4441307;32;19996;-67
2023/03/01 02:39:41;;;;;;;;;;;;;;;3.25;99.55;99609.53;4441104;32;19978;-67
2023/03/01 02:42:17;;;;;;;;;;;;;;;3.27;100.00;99610.31;4441088;32;19991;-67
2023/03/01 02:44:45;;;;;;;;;;;;;;;3.21;100.00;99618.38;4441462;32;20047;-67
2023/03/01 02:47:12;;;;;;;;;;;;;;;3.27;100.00;99615.50;4455303;32;19981;-67
2023/03/01 02:49:40;;;;;;;;;;;;;;;3.28;100.00;99611.16;4455276;32;19981;-67
2023/03/01 02:52:11;;;;;;;;;;;;;;;3.25;100.00;99608.69;4455179;32;20007;-67
2023/03/01 02:54:38;;;;;;;;;;;;;;;3.28;100.00;99606.81;4455470;32;19985;-67
2023/03/01 02:57:05;;;;;;;;;;;;;;;3.28;100.00;99604.22;4455483;32;20052;-67
2023/03/01 02:59:38;;;;;;;;;;;;;;;3.14;100.00;99599.66;4441350;32;20036;-67
2023/03/01 03:02:07;;;;;;;;;;;;;;;3.10;100.00;99597.28;4455555;32;19985;-67
2023/03/01 03:04:34;;;;;;;;;;;;;;;3.10;100.00;99599.88;4454960;32;20458;-67
2023/03/01 03:07:03;;;;;;;;;;;;;;;3.16;100.00;99597.87;4454885;32;20484;-67
2023/03/01 03:09:30;;;;;;;;;;;;;;;3.07;100.00;99600.00;4454882;32;20044;-67
2023/03/01 03:11:57;;;;;;;;;;;;;;;3.05;100.00;99601.84;4441216;32;20048;-67
2023/03/01 03:14:25;;;;;;;;;;;;;;;3.08;100.00;99592.19;4451194;32;19984;-67
2023/03/01 03:16:53;;;;;;;;;;;;;;;3.14;100.00;99589.31;4455172;32;19976;-67
2023/03/01 03:19:20;;;;;;;;;;;;;;;3.08;100.00;99584.41;4455160;32;19980;-67
2023/03/01 03:21:49;;;;;;;;;;;;;;;3.09;100.00;99588.69;4454966;32;19981;-67
2023/03/01 03:24:17;;;;;;;;;;;;;;;2.97;100.00;99587.50;4455047;32;20025;-67
2023/03/01 03:26:44;;;;;;;;;;;;;;;2.99;100.00;99585.66;4454835;32;19972;-67
2023/03/01 03:29:12;;;;;;;;;;;;;;;2.97;100.00;99586.66;4454775;32;20025;-67
2023/03/01 03:31:39;;;;;;;;;;;;;;;3.04;100.00;99576.84;4454737;32;19999;-67
2023/03/01 03:34:06;;;;;;;;;;;;;;;3.11;100.00;99568.75;4454978;32;20346;-67
2023/03/01 03:36:34;;;;;;;;;;;;;;;3.05;100.00;99578.53;4455166;32;19991;-67
2023/03/01 03:39:01;;;;;;;;;;;;;;;3.18;100.00;99587.44;4454589;32;20567;-67
2023/03/01 03:41:29;;;;;;;;;;;;;;;3.21;100.00;99582.13;4454879;32;20023;-67
2023/03/01 03:43:56;;;;;;;;;;;;;;;3.12;100.00;99580.78;4454098;32;20029;-67
2023/03/01 03:46:24;;;;;;;;;;;;;;;3.00;100.00;99582.19;4454802;32;19988;-67
2023/03/01 03:48:51;;;;;;;;;;;;;;;3.03;100.00;99583.78;4455058;32;19996;-67
2023/03/01 03:51:19;;;;;;;;;;;;;;;2.96;100.00;99579.78;4454782;32;20350;-67
2023/03/01 03:53:46;;;;;;;;;;;;;;;3.01;100.00;99583.88;4440578;32;20003;-67
2023/03/01 03:56:14;;;;;;;;;;;;;;;2.99;100.00;99585.66;4454712;32;19991;-67
2023/03/01 03:58:41;;;;;;;;;;;;;;;2.99;100.00;99580.50;4454637;32;19984;-67
2023/03/01 04:01:08;;;;;;;;;;;;;;;3.00;100.00;99571.00;4454723;32;19977;-67
2023/03/01 04:03:36;;;;;;;;;;;;;;;2.96;100.00;99572.84;4454549;32;20342;-67
2023/03/01 04:06:04;;;;;;;;;;;;;;;2.88;100.00;99579.28;4455048;32;20031;-67
2023/03/01 04:08:31;;;;;;;;;;;;;;;2.85;100.00;99572.50;4454534;32;19995;-67
2023/03/01 04:11:00;;;;;;;;;;;;;;;2.83;100.00;99574.31;4447095;32;20069;-67
2023/03/01 04:13:27;;;;;;;;;;;;;;;2.84;100.00;99560.47;4444727;32;19996;-67
2023/03/01 04:15:54;;;;;;;;;;;;;;;2.95;100.00;99567.75;4454491;32;20036;-67
2023/03/01 04:18:23;;;;;;;;;;;;;;;2.94;100.00;99564.34;4454432;32;19979;-67
2023/03/01 04:20:52;;;;;;;;;;;;;;;2.97;100.00;99561.59;4454599;32;19987;-67
2023/03/01 04:23:20;;;;;;;;;;;;;;;2.82;100.00;99567.47;4454610;32;19980;-67
2023/03/01 04:25:55;;;;;;;;;;;;;;;2.80;100.00;99564.09;4454528;32;20010;-67
2023/03/01 04:28:26;;;;;;;;;;;;;;;2.80;100.00;99570.12;4454745;32;19996;-67
2023/03/01 04:30:54;;;;;;;;;;;;;;;2.78;100.00;99576.28;4440576;32;19984;-67
2023/03/01 04:33:22;;;;;;;;;;;;;;;2.87;100.00;99570.69;4454483;32;19984;-67
2023/03/01 04:35:49;;;;;;;;;;;;;;;2.89;100.00;99576.63;4454522;32;19989;-67
2023/03/01 04:38:17;;;;;;;;;;;;;;;2.86;100.00;99581.09;4454486;32;20032;-67
2023/03/01 04:40:45;;;;;;;;;;;;;;;2.93;100.00;99574.75;4454317;32;19989;-67
2023/03/01 04:43:15;;;;;;;;;;;;;;;2.97;100.00;99579.72;4454542;32;20021;-67
2023/03/01 04:45:43;;;;;;;;;;;;;;;2.92;100.00;99586.00;4454518;32;19983;-67
2023/03/01 04:48:10;;;;;;;;;;;;;;;2.98;100.00;99584.00;4454580;32;20035;-67
2023/03/01 04:50:37;;;;;;;;;;;;;;;2.91;100.00;99579.16;4454389;32;20000;-67
2023/03/01 04:53:05;;;;;;;;;;;;;;;2.92;100.00;99573.06;4454500;32;20323;-67
2023/03/01 04:55:33;;;;;;;;;;;;;;;2.92;100.00;99579.09;4454339;32;19990;-67
2023/03/01 04:58:00;;;;;;;;;;;;;;;3.01;100.00;99570.94;4454390;32;19981;-67
2023/03/01 05:00:27;;;;;;;;;;;;;;;2.88;100.00;99572.38;4454528;32;19985;-67
2023/03/01 05:02:55;;;;;;;;;;;;;;;2.90;100.00;99569.72;4454494;32;19999;-67
2023/03/01 05:05:27;;;;;;;;;;;;;;;2.97;100.00;99578.91;4423186;32;19999;-67
2023/03/01 05:07:56;;;;;;;;;;;;;;;2.89;100.00;99576.63;4423066;32;20411;-67
2023/03/01 05:10:23;;;;;;;;;;;;;;;2.93;100.00;99570.41;4426965;32;19997;-67
2023/03/01 05:12:52;;;;;;;;;;;;;;;2.94;100.00;99572.09;4439816;32;20022;-67
2023/03/01 05:15:21;;;;;;;;;;;;;;;3.05;100.00;99573.38;4454001;32;20354;-67
2023/03/01 05:17:49;;;;;;;;;;;;;;;3.02;100.00;99577.75;4453610;32;20053;-67
2023/03/01 05:20:16;;;;;;;;;;;;;;;2.99;100.00;99577.06;4453978;32;20049;-67
2023/03/01 05:22:44;;;;;;;;;;;;;;;2.96;100.00;99575.44;4435447;32;19989;-67
2023/03/01 05:25:32;;;;;;;;;;;;;;;2.98;100.00;99580.56;4422773;32;20345;-67
2023/03/01 05:28:04;;;;;;;;;;;;;;;2.95;100.00;99575.50;4405458;32;20056;-67
2023/03/01 05:30:32;;;;;;;;;;;;;;;2.89;100.00;99578.38;4405477;32;20009;-67
2023/03/01 05:32:59;;;;;;;;;;;;;;;2.96;100.00;99575.44;4405424;32;19997;-67
2023/03/01 05:35:27;;;;;;;;;;;;;;;2.94;100.00;99576.44;4404899;32;20400;-67
2023/03/01 05:37:54;;;;;;;;;;;;;;;2.94;100.00;99571.28;4405208;32;20035;-67
2023/03/01 05:40:23;;;;;;;;;;;;;;;2.95;100.00;99573.78;4405045;32;20014;-67
2023/03/01 05:42:55;;;;;;;;;;;;;;;2.89;100.00;99568.84;4404892;32;20032;-67
2023/03/01 05:45:23;;;;;;;;;;;;;;;2.91;100.00;99572.25;4405185;32;20001;-67
2023/03/01 05:47:50;;;;;;;;;;;;;;;2.94;100.00;99569.50;4405233;32;19981;-67
2023/03/01 05:50:19;;;;;;;;;;;;;;;3.04;100.00;99574.28;4404960;32;19993;-67
2023/03/01 05:52:50;;;;;;;;;;;;;;;3.07;100.00;99577.53;4405250;32;20020;-67
2023/03/01 05:55:19;;;;;;;;;;;;;;;3.06;100.00;99575.03;4415330;32;19977;-68
2023/03/01 05:57:47;;;;;;;;;;;;;;;3.04;100.00;99576.84;4411473;32;20487;-67
2023/03/01 06:00:15;;;;;;;;;;;;;;;3.11;100.00;99579.09;4437264;32;20008;-67
2023/03/01 06:02:42;;;;;;;;;;;;;;;3.10;100.00;99574.00;4438006;32;19977;-67
2023/03/01 06:05:10;;;;;;;;;;;;;;;3.17;100.00;99578.00;4430201;32;19996;-67
2023/03/01 06:07:38;;;;;;;;;;;;;;;3.12;100.00;99580.78;4431491;32;19984;-67
2023/03/01 06:10:06;;;;;;;;;;;;;;;3.17;100.00;99593.53;4420210;32;20061;-68
2023/03/01 06:12:34;;;;;;;;;;;;;;;3.13;100.00;99587.63;4434809;32;19981;-67
2023/03/01 06:15:01;;;;;;;;;;;;;;;3.30;100.00;99597.22;4443851;32;19985;-67
2023/03/01 06:17:29;;;;;;;;;;;;;;;3.41;100.00;99593.28;4436945;32;19977;-67
2023/03/01 06:19:57;;;;;;;;;;;;;;;3.39;100.00;99595.94;4437143;32;20683;-67
2023/03/01 06:22:24;;;;;;;;;;;;;;;3.48;100.00;99602.47;4437758;32;20043;-67
2023/03/01 06:24:52;;;;;;;;;;;;;;;3.72;100.00;99608.25;4430460;32;20034;-67
2023/03/01 06:27:19;;;;;;;;;;;;;;;3.76;100.00;99604.59;4436704;32;20052;-67
2023/03/01 06:29:46;;;;;;;;;;;;;;;3.71;100.00;99609.16;4437518;32;20036;-67
2023/03/01 06:32:14;;;;;;;;;;;;;;;3.70;100.00;99608.31;4434772;32;20044;-67
2023/03/01 06:34:41;;;;;;;;;;;;;;;3.78;99.73;99605.34;4436313;32;20004;-67
2023/03/01 06:37:09;;;;;;;;;;;;;;;3.86;99.08;99607.56;4437128;32;19989;-67
2023/03/01 06:39:36;;;;;;;;;;;;;;;3.88;100.00;99608.34;4436241;32;20327;-66
2023/03/01 06:42:05;;;;;;;;;;;;;;;3.75;99.01;99607.25;4422268;32;20460;-67
2023/03/01 06:44:32;;;;;;;;;;;;;;;3.78;99.72;99607.94;4429241;32;20360;-64
2023/03/01 06:47:00;;;;;;;;;;;;;;;3.77;99.56;99608.88;4431235;32;20795;-66
2023/03/01 06:49:27;;;;;;;;;;;;;;;3.78;99.95;99612.28;4432025;32;19992;-67
2023/03/01 06:51:55;;;;;;;;;;;;;;;3.95;99.74;99601.09;4442481;32;19985;-66
2023/03/01 06:54:22;;;;;;;;;;;;;;;3.95;98.42;99607.16;4433597;32;19985;-67
2023/03/01 06:56:50;;;;;;;;;;;;;;;3.92;98.33;99620.22;4435886;32;20439;-68
2023/03/01 06:59:17;;;;;;;;;;;;;;;3.96;98.30;99610.56;4435924;32;19989;-68
2023/03/01 07:01:45;;;;;;;;;;;;;;;3.91;98.82;99618.56;4436588;32;20035;-67
2023/03/01 07:04:12;;;;;;;;;;;;;;;4.16;99.03;99617.38;4435368;32;20016;-68
2023/03/01 07:06:40;;;;;;;;;;;;;;;4.14;97.72;99607.06;4435245;32;19986;-66
2023/03/01 07:09:07;;;;;;;;;;;;;;;4.08;97.67;99607.38;4425717;32;19993;-67
2023/03/01 07:11:35;;;;;;;;;;;;;;;4.01;97.40;99612.03;4434640;32;19984;-67
2023/03/01 07:14:03;;;;;;;;;;;;;;;4.11;97.56;99609.81;4445348;32;19976;-68
2023/03/01 07:16:31;;;;;;;;;;;;;;;4.06;98.67;99609.22;4436119;32;19973;-67
2023/03/01 07:18:59;;;;;;;;;;;;;;;4.17;96.77;99616.47;4434816;32;20318;-66
2023/03/01 07:21:27;;;;;;;;;;;;;;;4.29;96.46;99615.03;4444510;32;19976;-67
2023/03/01 07:23:54;;;;;;;;;;;;;;;4.24;96.15;99612.66;4430664;32;19994;-68
2023/03/01 07:26:22;;;;;;;;;;;;;;;4.49;95.38;99619.22;4436806;32;20004;-67
2023/03/01 07:28:52;;;;;;;;;;;;;;;4.60;94.42;99624.69;4432963;32;20467;-67
2023/03/01 07:31:20;;;;;;;;;;;;;;;4.80;93.47;99619.31;4434311;32;19988;-65
2023/03/01 07:33:48;;;;;;;;;;;;;;;4.95;93.94;99616.81;4436203;32;19993;-66
2023/03/01 07:36:16;;;;;;;;;;;;;;;4.82;91.24;99615.81;4436755;32;19994;-67
2023/03/01 07:38:43;;;;;;;;;;;;;;;4.60;91.00;99614.31;4432016;32;19995;-68
2023/03/01 07:41:11;;;;;;;;;;;;;;;4.51;92.93;99619.97;4431822;32;19969;-72
2023/03/01 07:43:38;;;;;;;;;;;;;;;4.45;92.22;99613.31;4435799;32;19988;-70
2023/03/01 07:46:06;;;;;;;;;;;;;;;4.61;92.94;99610.81;4438375;32;19991;-70
2023/03/01 07:48:33;;;;;;;;;;;;;;;4.71;91.08;99622.41;4436787;32;19999;-69
2023/03/01 07:51:01;;;;;;;;;;;;;;;4.76;91.57;99614.38;4436263;32;19985;-69
2023/03/01 07:53:31;;;;;;;;;;;;;;;5.10;91.38;99617.78;4434170;32;20335;-69
2023/03/01 07:56:04;;;;;;;;;;;;;;;5.17;88.32;99613.13;4437583;32;19983;-69
2023/03/01 07:58:42;;;;;;;;;;;;;;;5.26;88.91;99608.25;4438947;32;19977;-70
2023/03/01 08:01:11;;;;;;;;;;;;;;;5.46;88.82;99603.75;4437900;32;20042;-68
2023/03/01 08:03:39;;;;;;;;;;;;;;;5.47;85.87;99603.66;4428044;32;20056;-69
2023/03/01 08:06:07;;;;;;;;;;;;;;;5.46;84.40;99599.38;4416893;32;19995;-66
2023/03/01 08:08:35;;;;;;;;;;;;;;;5.14;85.70;99607.16;4430909;32;20701;-67
2023/03/01 08:11:03;;;;;;;;;;;;;;;5.24;86.58;99604.06;4431763;32;20390;-65
2023/03/01 08:13:31;;;;;;;;;;;;;;;5.35;86.07;99599.13;4435493;32;20318;-67
2023/03/01 08:16:06;;;;;;;;;;;;;;;5.59;85.13;99601.31;4434871;32;19980;-65
2023/03/01 08:18:35;;;;;;;;;;;;;;;5.86;85.90;99604.97;4427870;32;19993;-66
2023/03/01 08:21:03;;;;;;;;;;;;;;;5.83;81.61;99605.16;4429838;32;20039;-66
2023/03/01 08:23:30;;;;;;;;;;;;;;;5.71;81.46;99602.38;4433294;32;20070;-66
2023/03/01 08:26:05;;;;;;;;;;;;;;;5.78;85.33;99594.12;4429064;32;19989;-66
2023/03/01 08:28:33;;;;;;;;;;;;;;;6.06;85.04;99600.44;4430370;32;19997;-66
2023/03/01 08:31:00;;;;;;;;;;;;;;;6.08;82.88;99593.38;4435168;32;20409;-68
2023/03/01 08:33:28;;;;;;;;;;;;;;;6.18;80.85;99591.91;4434560;32;19993;-66
2023/03/01 08:36:02;;;;;;;;;;;;;;;6.46;80.76;99590.28;4429789;32;19992;-67
2023/03/01 08:38:30;;;;;;;;;;;;;;;6.71;80.78;99596.66;4435553;32;19989;-67
2023/03/01 08:40:59;;;;;;;;;;;;;;;6.57;75.51;99603.53;4436035;32;20011;-67
2023/03/01 08:43:27;;;;;;;;;;;;;;;6.53;74.31;99609.00;4428915;32;19994;-67
2023/03/01 08:45:54;;;;;;;;;;;;;;;6.16;75.33;99600.72;4436371;32;19991;-66
2023/03/01 08:48:22;;;;;;;;;;;;;;;6.02;79.41;99594.56;4432698;32;20003;-67
2023/03/01 08:50:49;;;;;;;;;;;;;;;6.28;76.13;99593.97;4435134;32;20067;-68
2023/03/01 08:53:17;;;;;;;;;;;;;;;6.24;77.23;99593.34;4437508;32;19993;-68
2023/03/01 08:55:44;;;;;;;;;;;;;;;6.36;77.71;99581.37;4436203;32;20030;-70
2023/03/01 08:58:11;;;;;;;;;;;;;;;6.63;75.77;99573.69;4428210;32;19980;-69
2023/03/01 09:00:39;;;;;;;;;;;;;;;6.86;76.68;99574.91;4430683;32;20041;-69
2023/03/01 09:03:08;;;;;;;;;;;;;;;6.87;73.01;99573.13;4429266;32;20048;-69
2023/03/01 09:05:37;;;;;;;;;;;;;;;6.95;72.18;99568.28;4426328;32;20022;-69
2023/03/01 09:08:04;;;;;;;;;;;;;;;7.04;71.96;99569.47;4431771;32;19986;-68
2023/03/01 09:10:32;;;;;;;;;;;;;;;7.49;73.80;99564.91;4429962;32;19986;-69
2023/03/01 09:12:59;;;;;;;;;;;;;;;7.76;69.76;99557.09;4429530;32;20004;-70
2023/03/01 09:15:26;;;;;;;;;;;;;;;7.97;69.81;99554.84;4429170;32;19964;-68
2023/03/01 09:17:54;;;;;;;;;;;;;;;8.17;68.53;99552.69;4429972;32;20042;-68
2023/03/01 09:20:21;;;;;;;;;;;;;;;8.10;67.24;99554.03;4435971;32;19993;-66
2023/03/01 09:22:49;;;;;;;;;;;;;;;8.18;65.80;99551.78;4434694;32;20028;-69
2023/03/01 09:25:16;;;;;;;;;;;;;;;8.27;68.05;99550.31;4430554;32;19981;-69
2023/03/01 09:27:43;;;;;;;;;;;;;;;8.34;66.53;99546.34;4434855;32;19992;-67
2023/03/01 09:30:12;;;;;;;;;;;;;;;8.51;65.64;99537.41;4435317;32;20013;-67
2023/03/01 09:32:42;;;;;;;;;;;;;;;8.82;64.64;99541.34;4429526;32;20001;-68
2023/03/01 09:35:10;;;;;;;;;;;;;;;8.99;64.10;99540.19;4431468;32;20500;-68
2023/03/01 09:37:38;;;;;;;;;;;;;;;8.38;63.72;99531.31;4425260;32;19985;-67
2023/03/01 09:40:06;;;;;;;;;;;;;;;8.38;65.72;99526.09;4430039;32;20029;-67
2023/03/01 09:42:34;;;;;;;;;;;;;;;8.24;65.22;99525.25;4430291;32;19996;-67
2023/03/01 09:45:05;;;;;;;;;;;;;;;8.40;66.50;99516.38;4426601;32;19980;-67
2023/03/01 09:47:34;;;;;;;;;;;;;;;8.38;65.38;99519.09;4416154;32;20033;-67
2023/03/01 09:50:14;;;;;;;;;;;;;;;8.30;65.13;99518.78;4417958;32;20343;-67
2023/03/01 09:52:42;;;;;;;;;;;;;;;8.20;64.96;99515.94;4432181;32;20423;-67
2023/03/01 09:55:11;;;;;;;;;;;;;;;7.76;66.73;99523.19;4430621;32;19996;-67
2023/03/01 09:57:41;;;;;;;;;;;;;;;7.95;68.92;99520.22;4428537;32;20022;-67
2023/03/01 10:00:24;;;;;;;;;;;;;;;8.26;66.35;99517.31;4408914;32;20007;-67
2023/03/01 10:02:54;;;;;;;;;;;;;;;8.37;65.71;99509.56;4420085;32;20400;-67
2023/03/01 10:05:27;;;;;;;;;;;;;;;8.61;65.66;99512.31;4431306;32;19997;-67
2023/03/01 10:07:55;;;;;;;;;;;;;;;8.23;64.99;99510.53;4436418;32;20419;-67
2023/03/01 10:10:25;;;;;;;;;;;;;;;8.38;65.17;99511.25;4429671;32;19985;-67
2023/03/01 10:12:52;;;;;;;;;;;;;;;8.62;67.08;99508.78;4435135;32;19994;-67
2023/03/01 10:15:33;;;;;;;;;;;;;;;8.53;65.95;99510.22;4438050;32;20461;-67
2023/03/01 10:18:10;;;;;;;;;;;;;;;8.43;65.02;99503.09;4434155;32;20003;-67
2023/03/01 10:20:50;;;;;;;;;;;;;;;8.64;66.61;99499.03;4411924;32;20004;-67
2023/03/01 10:23:17;;;;;;;;;;;;;;;8.92;65.80;99491.91;4418731;32;20500;-67
2023/03/01 10:26:04;;;;;;;;;;;;;;;8.69;63.99;99486.50;4414236;32;19981;-67
2023/03/01 10:28:51;;;;;;;;;;;;;;;8.96;65.06;99482.91;4433410;32;19977;-66
2023/03/01 10:31:22;;;;;;;;;;;;;;;9.12;64.00;99480.00;4432953;32;20041;-67
2023/03/01 10:33:54;;;;;;;;;;;;;;;8.29;64.60;99483.16;4417083;32;20044;-67
2023/03/01 10:36:22;;;;;;;;;;;;;;;8.56;66.79;99482.25;4428904;32;19985;-67
2023/03/01 10:38:54;;;;;;;;;;;;;;;8.64;65.87;99477.31;4430047;32;20037;-67
2023/03/01 10:41:24;;;;;;;;;;;;;;;8.95;65.17;99476.00;4428829;32;20389;-67
2023/03/01 10:43:56;;;;;;;;;;;;;;;9.04;64.55;99475.34;4432788;32;19995;-67
2023/03/01 10:46:30;;;;;;;;;;;;;;;9.09;64.02;99471.56;4429109;32;19985;-66
2023/03/01 10:49:14;;;;;;;;;;;;;;;8.88;63.17;99472.97;4426772;32;20681;-67
2023/03/01 10:51:44;;;;;;;;;;;;;;;8.75;64.67;99466.13;4429322;32;20059;-67
2023/03/01 10:54:18;;;;;;;;;;;;;;;8.86;64.34;99458.38;4422380;32;19977;-66
2023/03/01 10:56:46;;;;;;;;;;;;;;;9.14;65.61;99456.38;4429883;32;20355;-66
2023/03/01 10:59:19;;;;;;;;;;;;;;;9.26;65.12;99445.03;4436217;32;20377;-65
2023/03/01 11:01:47;;;;;;;;;;;;;;;9.26;63.93;99444.19;4419428;32;20046;-66
2023/03/01 11:04:15;;;;;;;;;;;;;;;9.38;65.84;99448.53;4414169;32;19985;-67
2023/03/01 11:06:42;;;;;;;;;;;;;;;9.50;65.09;99449.41;4426825;32;20379;-67
2023/03/01 11:09:16;;;;;;;;;;;;;;;9.79;64.76;99444.63;4432496;32;19989;-66
2023/03/01 11:11:43;;;;;;;;;;;;;;;9.69;61.92;99446.25;4433452;32;19980;-66
2023/03/01 11:14:27;;;;;;;;;;;;;;;9.89;61.17;99440.34;4434175;32;20398;-66
2023/03/01 11:17:02;;;;;;;;;;;;;;;10.34;61.98;99438.75;4417405;32;20016;-66
2023/03/01 11:19:29;;;;;;;;;;;;;;;10.48;59.52;99434.12;4435148;32;20033;-67
2023/03/01 11:22:05;;;;;;;;;;;;;;;10.41;57.65;99446.03;4438133;32;19990;-67
2023/03/01 11:24:44;;;;;;;;;;;;;;;10.05;57.92;99426.94;4423203;32;19991;-67
2023/03/01 11:27:16;;;;;;;;;;;;;;;10.47;59.26;99434.25;4428587;32;19968;-67
2023/03/01 11:30:04;;;;;;;;;;;;;;;10.97;58.52;99425.94;4437785;32;20046;-67
2023/03/01 11:32:55;;;;;;;;;;;;;;;11.27;58.08;99432.28;4435446;32;20342;-67
2023/03/01 11:35:23;;;;;;;;;;;;;;;11.35;55.88;99437.72;4385891;32;19995;-67
2023/03/01 11:37:51;;;;;;;;;;;;;;;10.97;55.71;99431.19;4370626;32;20480;-67
2023/03/01 11:40:25;;;;;;;;;;;;;;;10.90;56.17;99435.25;4387994;32;20054;-67
2023/03/01 11:43:12;;;;;;;;;;;;;;;10.16;58.65;99433.97;4383793;32;20065;-68
2023/03/01 11:45:43;;;;;;;;;;;;;;;10.18;58.99;99436.47;4379982;32;20005;-68
2023/03/01 11:48:11;;;;;;;;;;;;;;;10.00;58.99;99431.69;4386605;32;20012;-66
2023/03/01 11:50:44;;;;;;;;;;;;;;;10.23;58.42;99429.09;4385921;32;20417;-67
2023/03/01 11:53:21;;;;;;;;;;;;;;;10.51;58.35;99424.34;4369624;32;20008;-67
2023/03/01 11:55:55;;;;;;;;;;;;;;;10.55;58.43;99421.37;4380349;32;19993;-67
2023/03/01 11:58:23;;;;;;;;;;;;;;;10.26;58.15;99424.44;4376379;32;19998;-68
2023/03/01 12:01:13;;;;;;;;;;;;;;;10.14;59.51;99422.78;4385485;32;20328;-67
2023/03/01 12:03:46;;;;;;;;;;;;;;;10.22;58.54;99423.03;4365644;32;20033;-68
2023/03/01 12:06:28;;;;;;;;;;;;;;;10.14;57.57;99414.91;4366599;32;20009;-67
2023/03/01 12:09:01;;;;;;;;;;;;;;;10.30;57.25;99401.47;4370643;32;20446;-68
2023/03/01 12:11:28;;;;;;;;;;;;;;;10.20;57.31;99403.16;4375070;32;20018;-68
2023/03/01 12:13:58;;;;;;;;;;;;;;;10.17;58.43;99393.72;4418569;32;20057;-68
2023/03/01 12:16:32;;;;;;;;;;;;;;;10.34;57.78;99386.38;4411999;32;20019;-67
2023/03/01 12:19:20;;;;;;;;;;;;;;;10.39;56.75;99379.84;4413922;32;20856;-67
2023/03/01 12:22:08;;;;;;;;;;;;;;;10.73;56.29;99385.00;4409375;32;19993;-68
2023/03/01 12:24:43;;;;;;;;;;;;;;;10.74;55.80;99370.94;4349300;32;20012;-68
2023/03/01 12:27:29;;;;;;;;;;;;;;;10.75;55.78;99363.91;4357846;32;20054;-67
2023/03/01 12:30:20;;;;;;;;;;;;;;;10.62;55.14;99364.91;4355068;32;20183;-67
2023/03/01 12:33:06;;;;;;;;;;;;;;;10.92;54.54;99368.63;4278275;33;20055;-67
2023/03/01 12:35:52;;;;;;;;;;;;;;;10.86;55.03;99363.06;4280053;33;20016;-68
2023/03/01 12:38:25;;;;;;;;;;;;;;;10.93;55.10;99366.84;4280118;33;20093;-68
2023/03/01 12:41:25;;;;;;;;;;;;;;;10.97;55.37;99366.47;4278734;33;20345;-68
2023/03/01 12:44:07;;;;;;;;;;;;;;;10.95;54.43;99373.63;4271467;33;20096;-68
2023/03/01 12:46:38;;;;;;;;;;;;;;;11.06;54.42;99361.44;4265740;33;20000;-68
2023/03/01 12:49:13;;;;;;;;;;;;;;;11.14;53.98;99361.63;4271009;33;20003;-69
2023/03/01 12:51:40;;;;;;;;;;;;;;;11.40;53.17;99367.38;4269899;33;20012;-68
2023/03/01 12:54:27;;;;;;;;;;;;;;;11.31;53.78;99368.09;4266768;33;20097;-69
2023/03/01 12:56:55;;;;;;;;;;;;;;;11.36;53.81;99360.72;4269135;33;21468;-69
2023/03/01 12:59:32;;;;;;;;;;;;;;;11.52;54.21;99370.75;4255539;33;20115;-69
2023/03/01 13:02:18;;;;;;;;;;;;;;;11.19;53.88;99364.72;4278667;33;20043;-68
2023/03/01 13:05:04;;;;;;;;;;;;;;;11.25;54.68;99358.13;4298201;33;20026;-68
2023/03/01 13:07:35;;;;;;;;;;;;;;;11.45;55.65;99352.06;4299696;33;19995;-67